createdAt,value
2023-04-27T00:01:01.064Z,101984.34
2023-04-27T00:03:28.398Z,101980.59
2023-04-27T00:05:55.323Z,101988.78
2023-04-27T00:08:22.030Z,101990.53
2023-04-27T00:10:48.572Z,101995.13
2023-04-27T00:13:15.013Z,101997.88
2023-04-27T00:15:41.694Z,101998.72
2023-04-27T00:18:08.350Z,101995.97
2023-04-27T00:20:34.898Z,102002.47
2023-04-27T00:23:01.332Z,102004.19
2023-04-27T00:25:27.925Z,102000.59
2023-04-27T00:27:54.378Z,102002.31
2023-04-27T00:30:21.085Z,102005.06
2023-04-27T00:32:47.572Z,101998.72
2023-04-27T00:35:16.364Z,102000.44
2023-04-27T00:37:42.907Z,102001.47
2023-04-27T00:40:09.826Z,102005.06
2023-04-27T00:42:36.789Z,101998.72
2023-04-27T00:45:05.932Z,101999.59
2023-04-27T00:47:33.336Z,101998.72
2023-04-27T00:49:59.911Z,102005.06
2023-04-27T00:52:26.674Z,101996.84
2023-04-27T00:54:53.227Z,102001.47
2023-04-27T00:57:20.800Z,102003.34
2023-04-27T00:59:47.467Z,102000.59
2023-04-27T01:02:14.119Z,102001.47
2023-04-27T01:04:41.495Z,101997.88
2023-04-27T01:07:08.158Z,101989.66
2023-04-27T01:09:34.734Z,101999.59
2023-04-27T01:12:01.627Z,101990.53
2023-04-27T01:14:28.151Z,101995.13
2023-04-27T01:16:54.731Z,101993.25
2023-04-27T01:19:21.235Z,101994.97
2023-04-27T01:21:50.145Z,101986.91
2023-04-27T01:24:16.888Z,101985.03
2023-04-27T01:26:43.449Z,101994.09
2023-04-27T01:29:10.150Z,101997.88
2023-04-27T01:31:36.812Z,102003.34
2023-04-27T01:34:03.761Z,101997.88
2023-04-27T01:36:31.781Z,102002.31
2023-04-27T01:38:58.250Z,102003.34
2023-04-27T01:41:24.863Z,102004.19
2023-04-27T01:43:51.309Z,102003.34
2023-04-27T01:46:17.839Z,101994.28
2023-04-27T01:48:44.371Z,101993.41
2023-04-27T01:51:11.082Z,101997.00
2023-04-27T01:53:37.642Z,101995.28
2023-04-27T01:56:04.476Z,101994.28
2023-04-27T01:58:32.957Z,101992.41
2023-04-27T02:00:59.511Z,101987.06
2023-04-27T02:03:26.219Z,101998.88
2023-04-27T02:05:52.941Z,101990.66
2023-04-27T02:08:19.577Z,101993.41
2023-04-27T02:10:46.279Z,101996.16
2023-04-27T02:13:12.857Z,101990.66
2023-04-27T02:15:39.400Z,101983.47
2023-04-27T02:18:06.140Z,101978.88
2023-04-27T02:20:33.222Z,101978.88
2023-04-27T02:23:02.213Z,101980.75
2023-04-27T02:25:28.870Z,101978.00
2023-04-27T02:27:55.665Z,101978.88
2023-04-27T02:30:22.815Z,101978.88
2023-04-27T02:32:50.033Z,101980.75
2023-04-27T02:35:16.764Z,101979.03
2023-04-27T02:37:43.328Z,101977.16
2023-04-27T02:40:10.330Z,101973.41
2023-04-27T02:42:38.817Z,101976.28
2023-04-27T02:45:08.580Z,101969.81
2023-04-27T02:47:36.402Z,101967.22
2023-04-27T02:50:03.166Z,101965.34
2023-04-27T02:52:33.833Z,101962.63
2023-04-27T02:55:00.377Z,101962.63
2023-04-27T02:57:27.844Z,101953.56
2023-04-27T02:59:54.327Z,101965.34
2023-04-27T03:02:20.919Z,101959.88
2023-04-27T03:04:47.627Z,101975.44
2023-04-27T03:07:14.142Z,101969.97
2023-04-27T03:09:40.686Z,101968.09
2023-04-27T03:12:07.285Z,101963.63
2023-04-27T03:14:33.798Z,101963.63
2023-04-27T03:17:00.846Z,101956.44
2023-04-27T03:19:27.456Z,101962.78
2023-04-27T03:21:54.075Z,101968.25
2023-04-27T03:24:21.754Z,101967.38
2023-04-27T03:26:49.482Z,101967.38
2023-04-27T03:29:16.228Z,101964.66
2023-04-27T03:31:42.880Z,101964.66
2023-04-27T03:34:09.428Z,101961.91
2023-04-27T03:36:38.630Z,101961.91
2023-04-27T03:39:05.139Z,101970.13
2023-04-27T03:41:31.591Z,101979.19
2023-04-27T03:43:58.110Z,101979.19
2023-04-27T03:46:24.698Z,101982.94
2023-04-27T03:48:51.226Z,101984.66
2023-04-27T03:51:18.325Z,101985.66
2023-04-27T03:53:46.437Z,101986.53
2023-04-27T03:56:13.503Z,101993.00
2023-04-27T03:58:40.019Z,101986.69
2023-04-27T04:01:16.684Z,102001.22
2023-04-27T04:03:43.619Z,101993.00
2023-04-27T04:06:12.036Z,101994.88
2023-04-27T04:08:39.280Z,101995.75
2023-04-27T04:11:05.986Z,101999.50
2023-04-27T04:13:36.003Z,101997.78
2023-04-27T04:16:03.899Z,101998.63
2023-04-27T04:18:30.594Z,101995.03
2023-04-27T04:20:57.832Z,101997.78
2023-04-27T04:23:24.572Z,101995.03
2023-04-27T04:25:51.179Z,102000.50
2023-04-27T04:28:18.199Z,102004.25
2023-04-27T04:30:45.137Z,102001.53
2023-04-27T04:33:11.923Z,102011.59
2023-04-27T04:35:39.301Z,102008.00
2023-04-27T04:38:06.008Z,102009.88
2023-04-27T04:40:32.656Z,102015.34
2023-04-27T04:42:59.096Z,102016.38
2023-04-27T04:45:26.018Z,102023.56
2023-04-27T04:47:54.318Z,102031.91
2023-04-27T04:50:21.291Z,102028.31
2023-04-27T04:52:47.753Z,102028.47
2023-04-27T04:55:15.055Z,102024.72
2023-04-27T04:57:41.556Z,102035.66
2023-04-27T05:00:12.766Z,102035.81
2023-04-27T05:02:42.863Z,102033.94
2023-04-27T05:05:09.938Z,102029.47
2023-04-27T05:07:36.505Z,102031.34
2023-04-27T05:10:03.495Z,102038.69
2023-04-27T05:12:30.126Z,102047.91
2023-04-27T05:14:56.753Z,102043.31
2023-04-27T05:17:23.289Z,102043.47
2023-04-27T05:19:49.859Z,102045.19
2023-04-27T05:22:16.357Z,102051.66
2023-04-27T05:24:43.038Z,102040.72
2023-04-27T05:27:09.514Z,102044.31
2023-04-27T05:29:36.064Z,102035.41
2023-04-27T05:32:03.209Z,102039.00
2023-04-27T05:34:29.825Z,102036.28
2023-04-27T05:36:56.275Z,102030.09
2023-04-27T05:39:22.721Z,102036.44
2023-04-27T05:41:49.232Z,102034.69
2023-04-27T05:44:15.749Z,102046.50
2023-04-27T05:46:42.220Z,102039.31
2023-04-27T05:49:08.675Z,102041.19
2023-04-27T05:51:35.387Z,102042.03
2023-04-27T05:54:02.075Z,102041.19
2023-04-27T05:56:28.786Z,102041.19
2023-04-27T05:58:55.336Z,102042.19
2023-04-27T06:01:21.980Z,102038.59
2023-04-27T06:03:48.675Z,102040.47
2023-04-27T06:06:15.298Z,102038.59
2023-04-27T06:08:42.116Z,102045.09
2023-04-27T06:11:08.618Z,102038.75
2023-04-27T06:13:35.105Z,102046.97
2023-04-27T06:16:01.914Z,102038.75
2023-04-27T06:18:28.564Z,102040.63
2023-04-27T06:21:00.448Z,102043.38
2023-04-27T06:23:27.192Z,102038.91
2023-04-27T06:25:53.658Z,102036.19
2023-04-27T06:28:20.596Z,102036.19
2023-04-27T06:30:47.317Z,102033.44
2023-04-27T06:33:13.778Z,102038.91
2023-04-27T06:35:41.236Z,102030.72
2023-04-27T06:38:08.162Z,102035.31
2023-04-27T06:40:37.391Z,102039.91
2023-04-27T06:43:03.965Z,102039.91
2023-04-27T06:45:30.581Z,102045.38
2023-04-27T06:47:57.114Z,102038.19
2023-04-27T06:50:23.683Z,102042.66
2023-04-27T06:52:50.169Z,102037.19
2023-04-27T06:55:16.620Z,102046.41
2023-04-27T06:57:43.208Z,102045.38
2023-04-27T07:00:11.645Z,102042.66
2023-04-27T07:02:38.155Z,102037.19
2023-04-27T07:05:04.914Z,102038.03
2023-04-27T07:07:31.450Z,102036.19
2023-04-27T07:09:58.017Z,102036.19
2023-04-27T07:12:24.820Z,102039.75
2023-04-27T07:14:55.315Z,102041.50
2023-04-27T07:17:22.049Z,102038.75
2023-04-27T07:19:48.596Z,102039.75
2023-04-27T07:22:16.068Z,102034.16
2023-04-27T07:24:42.622Z,102035.00
2023-04-27T07:27:10.199Z,102039.63
2023-04-27T07:29:37.867Z,102036.72
2023-04-27T07:32:08.821Z,102043.06
2023-04-27T07:34:48.913Z,102043.06
2023-04-27T07:37:19.761Z,102042.19
2023-04-27T07:39:46.770Z,102048.53
2023-04-27T07:42:13.397Z,102042.03
2023-04-27T07:44:40.798Z,102042.03
2023-04-27T07:47:07.592Z,102043.75
2023-04-27T07:49:35.481Z,102038.31
2023-04-27T07:52:02.033Z,102037.44
2023-04-27T07:54:28.611Z,102040.03
2023-04-27T07:56:55.286Z,102040.03
2023-04-27T07:59:21.849Z,102043.63
2023-04-27T08:01:48.429Z,102038.00
2023-04-27T08:04:16.219Z,102024.31
2023-04-27T08:06:43.707Z,102023.31
2023-04-27T08:09:11.302Z,102033.22
2023-04-27T08:11:38.134Z,102035.81
2023-04-27T08:14:04.645Z,102030.34
2023-04-27T08:16:31.297Z,102033.94
2023-04-27T08:18:59.253Z,102037.53
2023-04-27T08:21:28.548Z,102040.13
2023-04-27T08:23:55.181Z,102037.38
2023-04-27T08:26:23.417Z,102037.22
2023-04-27T08:28:50.998Z,102038.94
2023-04-27T08:31:17.569Z,102040.66
2023-04-27T08:33:44.119Z,102039.66
2023-04-27T08:36:10.898Z,102040.50
2023-04-27T08:38:37.453Z,102042.38
2023-04-27T08:41:14.497Z,102038.50
2023-04-27T08:43:49.739Z,102039.34
2023-04-27T08:46:21.403Z,102030.13
2023-04-27T08:48:51.627Z,102023.66
2023-04-27T08:51:18.744Z,102029.13
2023-04-27T08:54:03.198Z,102018.03
2023-04-27T08:56:30.341Z,102019.03
2023-04-27T08:58:58.303Z,102008.97
2023-04-27T09:01:26.161Z,102018.03
2023-04-27T09:03:57.630Z,102018.88
2023-04-27T09:06:32.659Z,102017.88
2023-04-27T09:08:59.661Z,102013.41
2023-04-27T09:11:31.311Z,102016.00
2023-04-27T09:14:00.206Z,102019.75
2023-04-27T09:16:29.272Z,102017.88
2023-04-27T09:18:57.608Z,102014.13
2023-04-27T09:21:25.677Z,102019.59
2023-04-27T09:23:52.674Z,102014.13
2023-04-27T09:26:21.796Z,102008.66
2023-04-27T09:28:54.108Z,102013.25
2023-04-27T09:31:23.397Z,102010.53
2023-04-27T09:33:55.902Z,102005.75
2023-04-27T09:36:23.199Z,102016.00
2023-04-27T09:38:51.502Z,102009.50
2023-04-27T09:41:18.740Z,102005.91
2023-04-27T09:43:46.263Z,101994.97
2023-04-27T09:46:14.265Z,101993.09
2023-04-27T09:48:41.634Z,101994.97
2023-04-27T09:51:08.977Z,101992.09
2023-04-27T09:53:40.847Z,101981.13
2023-04-27T09:56:48.620Z,101986.63
2023-04-27T09:59:55.478Z,101986.75
2023-04-27T10:02:25.704Z,101985.19
2023-04-27T10:05:36.045Z,101973.25
2023-04-27T10:08:04.952Z,101971.53
2023-04-27T10:10:42.333Z,101975.13
2023-04-27T10:13:08.824Z,101979.72
2023-04-27T10:15:40.017Z,101976.84
2023-04-27T10:18:07.232Z,101982.31
2023-04-27T10:20:37.775Z,101984.03
2023-04-27T10:23:04.803Z,101983.16
2023-04-27T10:25:42.762Z,101979.41
2023-04-27T10:28:16.301Z,101973.94
2023-04-27T10:30:49.271Z,101981.28
2023-04-27T10:33:18.061Z,101978.56
2023-04-27T10:35:56.047Z,101976.53
2023-04-27T10:38:29.089Z,101972.94
2023-04-27T10:40:57.216Z,101973.94
2023-04-27T10:43:28.680Z,101972.06
2023-04-27T10:45:55.870Z,101978.41
2023-04-27T10:48:22.439Z,101976.69
2023-04-27T10:50:51.978Z,101978.41
2023-04-27T10:53:24.821Z,101981.13
2023-04-27T10:55:57.902Z,101977.53
2023-04-27T10:58:29.872Z,101972.06
2023-04-27T11:01:01.687Z,101965.75
2023-04-27T11:03:28.280Z,101965.75
2023-04-27T11:06:05.619Z,101954.81
2023-04-27T11:08:43.833Z,101963.00
2023-04-27T11:11:28.474Z,101959.88
2023-04-27T11:13:56.009Z,101956.44
2023-04-27T11:16:23.157Z,101947.06
2023-04-27T11:18:54.758Z,101946.06
2023-04-27T11:21:22.236Z,101943.31
2023-04-27T11:23:49.031Z,101941.44
2023-04-27T11:26:17.758Z,101942.31
2023-04-27T11:28:56.875Z,101936.69
2023-04-27T11:31:23.516Z,101934.97
2023-04-27T11:33:51.003Z,101933.94
2023-04-27T11:36:19.164Z,101935.81
2023-04-27T11:38:46.132Z,101928.47
2023-04-27T11:41:13.443Z,101921.13
2023-04-27T11:43:47.716Z,101918.22
2023-04-27T11:46:14.437Z,101914.78
2023-04-27T11:48:41.348Z,101921.97
2023-04-27T11:51:10.971Z,101918.22
2023-04-27T11:53:39.901Z,101916.34
2023-04-27T11:56:10.758Z,101910.03
2023-04-27T11:58:38.955Z,101917.38
2023-04-27T12:01:06.396Z,101911.75
2023-04-27T12:03:33.215Z,101911.75
2023-04-27T12:06:11.739Z,101909.88
2023-04-27T12:08:46.537Z,101912.59
2023-04-27T12:11:13.024Z,101909.00
2023-04-27T12:13:39.565Z,101903.53
2023-04-27T12:16:06.942Z,101904.41
2023-04-27T12:18:33.604Z,101903.38
2023-04-27T12:21:03.032Z,101906.13
2023-04-27T12:23:29.853Z,101902.53
2023-04-27T12:25:56.583Z,101904.25
2023-04-27T12:28:23.439Z,101898.78
2023-04-27T12:30:50.359Z,101891.59
2023-04-27T12:33:17.635Z,101892.44
2023-04-27T12:36:04.608Z,101891.59
2023-04-27T12:38:31.242Z,101886.13
2023-04-27T12:41:01.802Z,101886.97
2023-04-27T12:43:28.271Z,101886.97
2023-04-27T12:45:58.862Z,101883.22
2023-04-27T12:48:26.379Z,101886.97
2023-04-27T12:50:52.938Z,101885.94
2023-04-27T12:53:24.208Z,101890.41
2023-04-27T12:55:51.260Z,101889.56
2023-04-27T12:58:17.760Z,101884.06
2023-04-27T13:00:44.253Z,101883.06
2023-04-27T13:03:11.197Z,101874.84
2023-04-27T13:05:37.776Z,101876.56
2023-04-27T13:08:05.570Z,101867.50
2023-04-27T13:10:32.277Z,101875.56
2023-04-27T13:12:59.655Z,101871.97
2023-04-27T13:15:26.280Z,101867.34
2023-04-27T13:17:54.333Z,101868.22
2023-04-27T13:20:21.121Z,101856.25
2023-04-27T13:22:48.196Z,101862.56
2023-04-27T13:25:16.536Z,101859.84
2023-04-27T13:27:43.072Z,101863.44
2023-04-27T13:30:10.093Z,101867.03
2023-04-27T13:32:36.737Z,101858.81
2023-04-27T13:35:03.917Z,101854.25
2023-04-27T13:37:30.437Z,101852.38
2023-04-27T13:39:56.908Z,101842.28
2023-04-27T13:42:29.234Z,101840.41
2023-04-27T13:44:56.905Z,101835.78
2023-04-27T13:47:23.450Z,101847.44
2023-04-27T13:49:49.970Z,101827.44
2023-04-27T13:52:16.468Z,101819.22
2023-04-27T13:54:43.086Z,101819.06
2023-04-27T13:57:09.534Z,101818.03
2023-04-27T13:59:36.001Z,101823.50
2023-04-27T14:02:03.321Z,101813.44
2023-04-27T14:04:29.966Z,101818.75
2023-04-27T14:06:56.615Z,101818.56
2023-04-27T14:09:24.193Z,101817.72
2023-04-27T14:11:56.845Z,101815.84
2023-04-27T14:14:24.157Z,101813.97
2023-04-27T14:16:53.610Z,101801.16
2023-04-27T14:19:22.907Z,101802.00
2023-04-27T14:21:50.123Z,101793.78
2023-04-27T14:24:16.687Z,101798.25
2023-04-27T14:26:44.259Z,101799.09
2023-04-27T14:29:11.599Z,101788.00
2023-04-27T14:31:39.305Z,101783.38
2023-04-27T14:34:06.578Z,101787.84
2023-04-27T14:36:33.457Z,101778.78
2023-04-27T14:39:01.142Z,101770.41
2023-04-27T14:41:28.369Z,101765.94
2023-04-27T14:43:55.315Z,101778.63
2023-04-27T14:46:22.138Z,101772.13
2023-04-27T14:48:49.124Z,101767.50
2023-04-27T14:51:16.321Z,101763.91
2023-04-27T14:53:43.984Z,101760.16
2023-04-27T14:56:11.201Z,101753.81
2023-04-27T14:58:39.152Z,101749.22
2023-04-27T15:01:07.931Z,101742.72
2023-04-27T15:03:34.810Z,101747.31
2023-04-27T15:06:01.946Z,101747.31
2023-04-27T15:08:29.704Z,101748.19
2023-04-27T15:10:59.731Z,101754.50
2023-04-27T15:13:27.313Z,101745.44
2023-04-27T15:15:58.569Z,101743.56
2023-04-27T15:18:25.673Z,101745.28
2023-04-27T15:20:55.863Z,101739.66
2023-04-27T15:23:23.389Z,101737.94
2023-04-27T15:25:51.794Z,101745.13
2023-04-27T15:28:18.775Z,101735.03
2023-04-27T15:30:45.489Z,101734.00
2023-04-27T15:33:13.101Z,101729.41
2023-04-27T15:35:40.486Z,101719.31
2023-04-27T15:38:09.097Z,101714.69
2023-04-27T15:40:36.449Z,101716.44
2023-04-27T15:43:03.226Z,101717.31
2023-04-27T15:45:29.801Z,101718.16
2023-04-27T15:47:56.350Z,101717.31
2023-04-27T15:50:23.016Z,101718.16
2023-04-27T15:52:49.569Z,101708.06
2023-04-27T15:55:16.575Z,101709.94
2023-04-27T15:57:43.103Z,101709.09
2023-04-27T16:00:10.457Z,101700.88
2023-04-27T16:02:38.200Z,101696.25
2023-04-27T16:05:06.389Z,101702.59
2023-04-27T16:07:34.185Z,101696.25
2023-04-27T16:10:00.791Z,101694.38
2023-04-27T16:12:28.199Z,101689.94
2023-04-27T16:14:57.339Z,101689.94
2023-04-27T16:17:27.837Z,101676.09
2023-04-27T16:19:54.711Z,101672.66
2023-04-27T16:22:22.240Z,101679.84
2023-04-27T16:24:48.905Z,101677.09
2023-04-27T16:27:17.224Z,101671.63
2023-04-27T16:29:43.818Z,101667.19
2023-04-27T16:32:11.075Z,101658.97
2023-04-27T16:34:38.149Z,101660.81
2023-04-27T16:37:04.691Z,101657.22
2023-04-27T16:39:31.200Z,101657.22
2023-04-27T16:41:57.737Z,101651.75
2023-04-27T16:44:24.219Z,101651.63
2023-04-27T16:46:52.020Z,101650.75
2023-04-27T16:49:18.495Z,101642.56
2023-04-27T16:51:45.038Z,101635.19
2023-04-27T16:54:12.688Z,101629.72
2023-04-27T16:56:39.175Z,101623.41
2023-04-27T16:59:05.976Z,101623.41
2023-04-27T17:01:32.585Z,101617.03
2023-04-27T17:04:02.297Z,101618.91
2023-04-27T17:06:29.867Z,101614.47
2023-04-27T17:08:57.520Z,101609.84
2023-04-27T17:11:24.558Z,101618.22
2023-04-27T17:13:51.066Z,101604.72
2023-04-27T17:16:18.561Z,101613.78
2023-04-27T17:18:48.990Z,101604.72
2023-04-27T17:21:17.105Z,101600.25
2023-04-27T17:23:46.436Z,101613.09
2023-04-27T17:26:15.772Z,101616.00
2023-04-27T17:28:42.255Z,101615.13
2023-04-27T17:31:08.871Z,101603.31
2023-04-27T17:33:36.010Z,101605.22
2023-04-27T17:36:02.467Z,101599.91
2023-04-27T17:38:28.953Z,101606.22
2023-04-27T17:40:55.446Z,101610.00
2023-04-27T17:43:21.897Z,101610.16
2023-04-27T17:45:48.375Z,101609.13
2023-04-27T17:48:14.922Z,101612.91
2023-04-27T17:50:41.552Z,101604.84
2023-04-27T17:53:08.015Z,101599.38
2023-04-27T17:55:34.548Z,101604.84
2023-04-27T17:58:03.850Z,101598.53
2023-04-27T18:00:30.768Z,101594.94
2023-04-27T18:02:57.452Z,101577.81
2023-04-27T18:05:24.136Z,101586.03
2023-04-27T18:07:51.514Z,101587.91
2023-04-27T18:10:18.060Z,101587.91
2023-04-27T18:17:38.227Z,101585.34
2023-04-27T18:20:09.514Z,101589.09
2023-04-27T18:22:39.806Z,101588.94
2023-04-27T18:25:07.142Z,101584.66
2023-04-27T18:27:33.564Z,101588.25
2023-04-27T18:30:00.041Z,101586.53
2023-04-27T18:32:26.621Z,101583.97
2023-04-27T18:34:53.914Z,101593.03
2023-04-27T18:37:20.571Z,101591.16
2023-04-27T18:39:47.087Z,101581.22
2023-04-27T18:42:13.593Z,101583.97
2023-04-27T18:44:40.255Z,101585.84
2023-04-27T18:47:07.882Z,101590.47
2023-04-27T18:49:34.369Z,101588.56
2023-04-27T18:52:00.877Z,101598.66
2023-04-27T18:54:27.382Z,101594.22
2023-04-27T18:56:53.951Z,101598.84
2023-04-27T18:59:20.453Z,101593.34
2023-04-27T19:01:47.099Z,101587.88
2023-04-27T19:04:14.474Z,101595.25
2023-04-27T19:06:41.172Z,101594.38
2023-04-27T19:09:09.159Z,101589.78
2023-04-27T19:11:35.992Z,101590.75
2023-04-27T19:14:03.651Z,101594.38
2023-04-27T19:16:30.332Z,101580.84
2023-04-27T19:18:57.245Z,101585.28
2023-04-27T19:21:23.847Z,101589.91
2023-04-27T19:23:50.352Z,101590.75
2023-04-27T19:26:16.842Z,101603.56
2023-04-27T19:28:43.408Z,101599.84
2023-04-27T19:31:10.332Z,101594.50
2023-04-27T19:33:37.120Z,101589.91
2023-04-27T19:36:03.909Z,101579.97
2023-04-27T19:38:30.898Z,101585.44
2023-04-27T19:40:57.579Z,101582.72
2023-04-27T19:43:24.103Z,101584.59
2023-04-27T19:45:51.179Z,101583.75
2023-04-27T19:48:17.739Z,101588.19
2023-04-27T19:50:44.379Z,101584.59
2023-04-27T19:53:11.188Z,101584.59
2023-04-27T19:55:37.891Z,101581.00
2023-04-27T19:58:04.555Z,101572.78
2023-04-27T20:00:31.152Z,101574.50
2023-04-27T20:02:57.999Z,101577.25
2023-04-27T20:05:25.100Z,101568.19
2023-04-27T20:07:51.753Z,101561.84
2023-04-27T20:10:18.694Z,101561.00
2023-04-27T20:12:56.305Z,101561.84
2023-04-27T20:15:24.193Z,101554.66
2023-04-27T20:17:50.921Z,101553.66
2023-04-27T20:20:18.136Z,101551.94
2023-04-27T20:22:44.894Z,101546.47
2023-04-27T20:25:13.917Z,101546.47
2023-04-27T20:27:40.980Z,101549.03
2023-04-27T20:30:08.439Z,101549.19
2023-04-27T20:32:35.090Z,101544.59
2023-04-27T20:35:02.545Z,101549.19
2023-04-27T20:37:29.196Z,101542.03
2023-04-27T20:39:55.837Z,101540.13
2023-04-27T20:42:22.610Z,101532.78
2023-04-27T20:44:49.256Z,101532.78
2023-04-27T20:47:16.170Z,101530.06
2023-04-27T20:49:42.859Z,101525.44
2023-04-27T20:52:09.447Z,101526.31
2023-04-27T20:54:36.259Z,101517.25
2023-04-27T20:57:03.844Z,101510.91
2023-04-27T20:59:30.526Z,101510.06
2023-04-27T21:01:57.000Z,101506.28
2023-04-27T21:04:28.113Z,101500.81
2023-04-27T21:07:04.382Z,101502.72
2023-04-27T21:09:31.431Z,101499.13
2023-04-27T21:11:58.030Z,101498.09
2023-04-27T21:14:24.533Z,101499.97
2023-04-27T21:16:51.060Z,101494.50
2023-04-27T21:19:17.812Z,101486.28
2023-04-27T21:21:44.314Z,101480.81
2023-04-27T21:24:11.060Z,101476.22
2023-04-27T21:26:37.667Z,101462.53
2023-04-27T21:29:05.968Z,101459.81
2023-04-27T21:31:33.346Z,101456.22
2023-04-27T21:34:00.040Z,101451.59
2023-04-27T21:36:26.684Z,101441.69
2023-04-27T21:38:53.490Z,101442.53
2023-04-27T21:41:19.990Z,101435.34
2023-04-27T21:43:46.704Z,101429.88
2023-04-27T21:46:13.246Z,101433.47
2023-04-27T21:48:39.824Z,101428.00
2023-04-27T21:51:06.303Z,101415.19
2023-04-27T21:53:32.815Z,101416.22
2023-04-27T21:55:59.628Z,101421.69
2023-04-27T21:58:26.178Z,101414.31
2023-04-27T22:00:52.710Z,101413.47
2023-04-27T22:03:19.331Z,101402.53
2023-04-27T22:05:48.788Z,101403.38
2023-04-27T22:08:17.378Z,101399.81
2023-04-27T22:10:44.679Z,101397.06
2023-04-27T22:13:18.764Z,101395.34
2023-04-27T22:15:46.393Z,101399.28
2023-04-27T22:18:14.404Z,101386.81
2023-04-27T22:20:42.310Z,101386.63
2023-04-27T22:23:09.514Z,101391.06
2023-04-27T22:25:36.460Z,101406.47
2023-04-27T22:28:02.994Z,101413.81
2023-04-27T22:30:30.297Z,101401.00
2023-04-27T22:32:57.631Z,101397.22
2023-04-27T22:35:27.152Z,101390.91
2023-04-27T22:37:55.749Z,101388.16
2023-04-27T22:40:22.404Z,101393.66
2023-04-27T22:42:48.840Z,101386.28
2023-04-27T22:45:15.480Z,101384.41
2023-04-27T22:47:44.499Z,101375.34
2023-04-27T22:50:11.943Z,101367.16
2023-04-27T22:52:42.098Z,101364.59
2023-04-27T22:55:09.779Z,101367.16
2023-04-27T22:57:36.490Z,101371.75
2023-04-27T23:00:05.461Z,101367.16
2023-04-27T23:02:32.249Z,101365.44
2023-04-27T23:04:59.101Z,101358.94
2023-04-27T23:07:25.579Z,101358.94
2023-04-27T23:09:52.877Z,101359.78
2023-04-27T23:12:20.714Z,101360.66
2023-04-27T23:14:47.363Z,101350.56
2023-04-27T23:17:15.471Z,101342.38
2023-04-27T23:19:41.985Z,101333.31
2023-04-27T23:22:08.502Z,101334.00
2023-04-27T23:24:35.023Z,101331.25
2023-04-27T23:27:01.605Z,101330.22
2023-04-27T23:29:28.492Z,101327.50
2023-04-27T23:31:54.962Z,101324.75
2023-04-27T23:34:21.660Z,101328.19
2023-04-27T23:36:48.208Z,101327.31
2023-04-27T23:39:14.672Z,101316.25
2023-04-27T23:41:41.242Z,101309.91
2023-04-27T23:44:08.424Z,101312.66
2023-04-27T23:46:35.152Z,101305.31
2023-04-27T23:49:01.725Z,101300.50
2023-04-27T23:51:28.228Z,101291.44
2023-04-27T23:53:54.785Z,101288.53
2023-04-27T23:56:23.022Z,101284.94
2023-04-27T23:58:49.708Z,101283.06
